createdAt,value
2023-01-18T00:02:00.203Z,77.82
2023-01-18T00:04:27.901Z,77.37
2023-01-18T00:06:54.255Z,77.24
2023-01-18T00:09:20.645Z,77.09
2023-01-18T00:11:47.107Z,77.15
2023-01-18T00:14:13.473Z,76.27
2023-01-18T00:16:39.886Z,75.94
2023-01-18T00:19:06.255Z,75.50
2023-01-18T00:21:33.951Z,74.67
2023-01-18T00:24:00.358Z,75.24
2023-01-18T00:26:26.710Z,74.35
2023-01-18T00:28:55.395Z,74.80
2023-01-18T00:31:21.877Z,74.87
2023-01-18T00:33:49.912Z,75.19
2023-01-18T00:36:16.637Z,75.38
2023-01-18T00:38:48.747Z,76.00
2023-01-18T00:41:15.108Z,75.63
2023-01-18T00:43:41.473Z,75.51
2023-01-18T00:46:09.911Z,75.89
2023-01-18T00:48:37.353Z,74.98
2023-01-18T00:51:04.499Z,76.53
2023-01-18T00:53:30.943Z,75.72
2023-01-18T00:55:58.658Z,75.52
2023-01-18T00:58:25.033Z,74.58
2023-01-18T01:00:52.479Z,74.93
2023-01-18T01:03:19.100Z,73.48
2023-01-18T01:05:45.473Z,72.84
2023-01-18T01:08:13.769Z,74.27
2023-01-18T01:10:40.184Z,75.22
2023-01-18T01:13:08.809Z,72.71
2023-01-18T01:15:36.836Z,72.11
2023-01-18T01:18:03.791Z,71.48
2023-01-18T01:20:30.237Z,72.85
2023-01-18T01:22:57.141Z,73.58
2023-01-18T01:25:23.663Z,73.89
2023-01-18T01:27:50.037Z,73.47
2023-01-18T01:30:18.916Z,75.27
2023-01-18T01:32:45.276Z,76.14
2023-01-18T01:35:11.674Z,74.53
2023-01-18T01:37:38.057Z,74.44
2023-01-18T01:40:05.651Z,76.06
2023-01-18T01:42:32.033Z,79.17
2023-01-18T01:44:58.547Z,78.33
2023-01-18T01:47:37.346Z,75.98
2023-01-18T01:50:11.561Z,76.52
2023-01-18T01:52:41.468Z,76.65
2023-01-18T01:55:14.639Z,79.44
2023-01-18T01:57:47.164Z,80.02
2023-01-18T02:00:15.926Z,78.57
2023-01-18T02:02:46.512Z,78.55
2023-01-18T02:05:15.125Z,77.54
2023-01-18T02:07:41.587Z,77.17
2023-01-18T02:10:08.516Z,78.43
2023-01-18T02:12:36.252Z,77.18
2023-01-18T02:15:03.825Z,76.03
2023-01-18T02:17:43.273Z,76.88
2023-01-18T02:20:43.975Z,78.80
2023-01-18T02:23:31.239Z,78.90
2023-01-18T02:26:41.504Z,80.06
2023-01-18T02:29:14.619Z,79.26
2023-01-18T02:31:53.034Z,80.66
2023-01-18T02:34:28.833Z,78.75
2023-01-18T02:37:04.595Z,77.14
2023-01-18T02:39:35.879Z,76.92
2023-01-18T02:42:09.099Z,76.62
2023-01-18T02:44:40.787Z,77.24
2023-01-18T02:47:08.593Z,75.87
2023-01-18T02:49:34.962Z,75.98
2023-01-18T02:52:01.691Z,79.43
2023-01-18T02:54:30.789Z,81.34
2023-01-18T02:56:59.861Z,79.45
2023-01-18T02:59:29.994Z,78.04
2023-01-18T03:02:02.075Z,77.27
2023-01-18T03:04:33.721Z,75.81
2023-01-18T03:07:05.297Z,78.46
2023-01-18T03:09:31.913Z,79.51
2023-01-18T03:12:05.904Z,79.12
2023-01-18T03:14:41.523Z,77.45
2023-01-18T03:17:15.672Z,75.90
2023-01-18T03:19:45.066Z,77.21
2023-01-18T03:22:11.419Z,78.61
2023-01-18T03:24:38.384Z,75.32
2023-01-18T03:27:04.718Z,75.04
2023-01-18T03:29:31.959Z,75.68
2023-01-18T03:32:01.235Z,74.66
2023-01-18T03:34:33.803Z,74.86
2023-01-18T03:37:02.510Z,74.71
2023-01-18T03:39:34.057Z,75.42
2023-01-18T03:42:03.907Z,75.03
2023-01-18T03:44:35.124Z,74.57
2023-01-18T03:47:02.576Z,73.18
2023-01-18T03:49:31.676Z,72.27
2023-01-18T03:52:09.932Z,71.46
2023-01-18T03:54:46.556Z,74.10
2023-01-18T03:57:18.776Z,74.15
2023-01-18T03:59:46.896Z,72.64
2023-01-18T04:02:15.650Z,71.00
2023-01-18T04:04:43.472Z,70.42
2023-01-18T04:07:10.235Z,71.10
2023-01-18T04:09:36.684Z,73.03
2023-01-18T04:12:03.356Z,74.14
2023-01-18T04:14:29.765Z,74.25
2023-01-18T04:16:56.167Z,73.60
2023-01-18T04:19:22.533Z,73.32
2023-01-18T04:21:50.238Z,71.40
2023-01-18T04:24:16.597Z,71.55
2023-01-18T04:26:42.962Z,71.84
2023-01-18T04:29:09.373Z,72.09
2023-01-18T04:31:35.865Z,71.71
2023-01-18T04:34:02.268Z,73.18
2023-01-18T04:36:28.658Z,74.07
2023-01-18T04:38:56.330Z,75.72
2023-01-18T04:41:23.152Z,75.05
2023-01-18T04:43:49.552Z,74.44
2023-01-18T04:46:15.965Z,73.81
2023-01-18T04:48:42.795Z,74.58
2023-01-18T04:51:13.508Z,74.15
2023-01-18T04:53:40.904Z,75.47
2023-01-18T04:56:09.347Z,74.31
2023-01-18T04:58:36.141Z,77.82
2023-01-18T05:01:03.399Z,78.63
2023-01-18T05:03:30.090Z,79.36
2023-01-18T05:05:56.483Z,77.51
2023-01-18T05:08:23.410Z,77.63
2023-01-18T05:10:49.780Z,78.53
2023-01-18T05:13:17.641Z,79.21
2023-01-18T05:15:44.023Z,78.34
2023-01-18T05:18:10.405Z,76.93
2023-01-18T05:20:36.778Z,77.10
2023-01-18T05:23:03.167Z,75.64
2023-01-18T05:25:29.507Z,77.45
2023-01-18T05:27:55.883Z,78.15
2023-01-18T05:30:23.551Z,75.94
2023-01-18T05:32:49.947Z,77.23
2023-01-18T05:35:16.431Z,76.87
2023-01-18T05:37:42.814Z,78.58
2023-01-18T05:40:10.579Z,77.25
2023-01-18T05:42:37.004Z,77.62
2023-01-18T05:45:03.880Z,76.61
2023-01-18T05:47:31.607Z,75.15
2023-01-18T05:49:58.161Z,77.05
2023-01-18T05:52:24.589Z,75.10
2023-01-18T05:54:50.970Z,75.59
2023-01-18T05:57:17.370Z,75.14
2023-01-18T05:59:43.742Z,77.42
2023-01-18T06:02:10.156Z,77.50
2023-01-18T06:04:37.965Z,78.15
2023-01-18T06:07:04.457Z,78.87
2023-01-18T06:09:31.040Z,78.13
2023-01-18T06:11:57.451Z,76.20
2023-01-18T06:14:23.907Z,76.71
2023-01-18T06:16:50.290Z,75.91
2023-01-18T06:19:16.991Z,76.68
2023-01-18T06:21:44.695Z,75.86
2023-01-18T06:24:11.084Z,75.05
2023-01-18T06:26:37.464Z,76.13
2023-01-18T06:29:04.089Z,76.19
2023-01-18T06:31:30.481Z,77.41
2023-01-18T06:33:56.897Z,76.44
2023-01-18T06:36:23.246Z,76.15
2023-01-18T06:38:50.990Z,76.45
2023-01-18T06:41:17.363Z,76.14
2023-01-18T06:43:43.716Z,75.14
2023-01-18T06:46:10.142Z,73.16
2023-01-18T06:48:36.582Z,72.86
2023-01-18T06:51:03.423Z,75.51
2023-01-18T06:53:29.777Z,76.15
2023-01-18T06:55:59.157Z,75.28
2023-01-18T06:58:26.610Z,74.40
2023-01-18T07:00:55.144Z,74.95
2023-01-18T07:03:21.784Z,73.93
2023-01-18T07:05:48.146Z,74.42
2023-01-18T07:08:14.573Z,74.88
2023-01-18T07:10:40.971Z,75.58
2023-01-18T07:13:08.681Z,75.80
2023-01-18T07:15:35.097Z,74.42
2023-01-18T07:18:01.521Z,76.57
2023-01-18T07:20:28.042Z,76.03
2023-01-18T07:22:54.422Z,77.17
2023-01-18T07:25:21.212Z,76.00
2023-01-18T07:27:47.865Z,74.97
2023-01-18T07:30:16.649Z,75.20
2023-01-18T07:32:46.740Z,74.39
2023-01-18T07:35:13.095Z,75.48
2023-01-18T07:37:42.031Z,75.95
2023-01-18T07:40:09.768Z,75.90
2023-01-18T07:42:36.700Z,75.28
2023-01-18T07:45:03.772Z,76.54
2023-01-18T07:47:31.513Z,76.27
2023-01-18T07:49:57.848Z,76.12
2023-01-18T07:52:24.331Z,75.18
2023-01-18T07:54:50.718Z,74.50
2023-01-18T07:57:17.123Z,76.69
2023-01-18T07:59:43.503Z,77.03
2023-01-18T08:02:11.665Z,76.97
2023-01-18T08:04:39.826Z,75.64
2023-01-18T08:07:06.750Z,74.88
2023-01-18T08:09:33.153Z,75.62
2023-01-18T08:12:01.126Z,75.06
2023-01-18T08:14:27.781Z,73.80
2023-01-18T08:16:54.424Z,76.04
2023-01-18T08:19:20.785Z,74.38
2023-01-18T08:21:48.512Z,74.66
2023-01-18T08:24:15.010Z,75.21
2023-01-18T08:26:41.377Z,75.84
2023-01-18T08:29:07.741Z,75.93
2023-01-18T08:31:34.299Z,74.61
2023-01-18T08:34:02.203Z,74.63
2023-01-18T08:36:28.555Z,74.54
2023-01-18T08:38:56.520Z,75.43
2023-01-18T08:41:24.211Z,73.08
2023-01-18T08:43:50.864Z,74.90
2023-01-18T08:46:17.861Z,73.90
2023-01-18T08:48:44.233Z,72.54
2023-01-18T08:51:10.644Z,72.06
2023-01-18T08:53:37.045Z,73.42
2023-01-18T08:56:06.092Z,72.49
2023-01-18T08:58:33.281Z,74.26
2023-01-18T09:01:00.030Z,73.45
2023-01-18T09:03:26.504Z,72.78
2023-01-18T09:05:52.889Z,74.61
2023-01-18T09:08:21.629Z,74.83
2023-01-18T09:10:47.988Z,73.49
2023-01-18T09:13:15.677Z,75.15
2023-01-18T09:15:42.073Z,74.52
2023-01-18T09:18:08.583Z,74.71
2023-01-18T09:20:35.506Z,74.37
2023-01-18T09:23:04.417Z,75.69
2023-01-18T09:25:30.816Z,75.04
2023-01-18T09:27:57.219Z,74.42
2023-01-18T09:30:25.528Z,74.09
2023-01-18T09:32:51.947Z,73.07
2023-01-18T09:35:18.371Z,73.24
2023-01-18T09:37:45.189Z,73.41
2023-01-18T09:40:16.463Z,74.10
2023-01-18T09:42:43.775Z,72.22
2023-01-18T09:45:25.279Z,72.36
2023-01-18T09:48:00.313Z,73.55
2023-01-18T09:50:26.711Z,73.18
2023-01-18T09:53:01.370Z,73.15
2023-01-18T09:55:46.022Z,73.36
2023-01-18T09:58:30.072Z,71.25
2023-01-18T10:01:05.115Z,71.12
2023-01-18T10:03:39.716Z,70.79
2023-01-18T10:06:12.681Z,71.41
2023-01-18T10:08:46.584Z,69.85
2023-01-18T10:11:20.372Z,69.34
2023-01-18T10:13:49.575Z,69.85
2023-01-18T10:16:16.054Z,67.62
2023-01-18T10:18:46.768Z,68.33
2023-01-18T10:21:20.956Z,68.44
2023-01-18T10:23:59.552Z,68.17
2023-01-18T10:26:30.365Z,68.14
2023-01-18T10:29:08.356Z,66.17
2023-01-18T10:31:45.097Z,64.66
2023-01-18T10:34:18.057Z,67.73
2023-01-18T10:36:47.969Z,66.19
2023-01-18T10:39:26.989Z,67.36
2023-01-18T10:41:57.040Z,64.56
2023-01-18T10:44:23.414Z,66.89
2023-01-18T10:46:55.396Z,63.35
2023-01-18T10:49:38.907Z,64.41
2023-01-18T10:52:27.613Z,63.00
2023-01-18T10:54:56.841Z,66.27
2023-01-18T10:57:26.878Z,64.96
2023-01-18T10:59:53.408Z,63.65
2023-01-18T11:02:24.050Z,63.67
2023-01-18T11:04:59.511Z,63.00
2023-01-18T11:07:27.471Z,66.11
2023-01-18T11:09:55.936Z,64.99
2023-01-18T11:12:27.456Z,64.27
2023-01-18T11:14:53.846Z,64.27
2023-01-18T11:17:20.201Z,61.66
2023-01-18T11:19:46.557Z,63.71
2023-01-18T11:22:17.106Z,63.97
2023-01-18T11:24:43.698Z,63.21
2023-01-18T11:27:16.537Z,62.66
2023-01-18T11:29:45.418Z,63.24
2023-01-18T11:32:20.759Z,64.34
2023-01-18T11:34:50.844Z,63.27
2023-01-18T11:37:33.462Z,63.70
2023-01-18T11:39:59.840Z,64.68
2023-01-18T11:42:28.535Z,62.79
2023-01-18T11:45:07.083Z,63.83
2023-01-18T11:47:42.249Z,62.67
2023-01-18T11:50:23.670Z,64.41
2023-01-18T11:52:55.586Z,65.35
2023-01-18T11:55:28.796Z,64.23
2023-01-18T11:57:55.225Z,64.83
2023-01-18T12:00:22.093Z,63.88
2023-01-18T12:03:02.506Z,62.97
2023-01-18T12:05:40.609Z,62.75
2023-01-18T12:08:23.004Z,63.89
2023-01-18T12:11:01.037Z,63.24
2023-01-18T12:13:35.227Z,63.96
2023-01-18T12:16:11.319Z,64.60
2023-01-18T12:18:58.024Z,62.13
2023-01-18T12:21:34.167Z,61.72
2023-01-18T12:24:16.932Z,61.04
2023-01-18T12:26:50.795Z,61.20
2023-01-18T12:29:30.630Z,62.88
2023-01-18T12:32:10.456Z,62.04
2023-01-18T12:34:40.765Z,61.70
2023-01-18T12:37:26.748Z,61.65
2023-01-18T12:40:08.179Z,62.04
2023-01-18T12:42:47.728Z,61.45
2023-01-18T12:45:22.231Z,60.58
2023-01-18T12:48:03.834Z,62.59
2023-01-18T12:50:33.956Z,61.93
2023-01-18T12:53:05.438Z,62.62
2023-01-18T12:55:37.442Z,61.08
2023-01-18T12:58:04.551Z,61.28
2023-01-18T13:00:35.189Z,61.52
2023-01-18T13:03:08.254Z,60.19
2023-01-18T13:05:40.128Z,61.73
2023-01-18T13:08:12.931Z,60.51
2023-01-18T13:10:41.666Z,59.83
2023-01-18T13:13:17.541Z,60.22
2023-01-18T13:15:51.267Z,59.45
2023-01-18T13:18:21.501Z,60.71
2023-01-18T13:21:01.662Z,60.46
2023-01-18T13:23:38.577Z,60.74
2023-01-18T13:26:19.454Z,61.38
2023-01-18T13:28:53.528Z,60.39
2023-01-18T13:31:30.338Z,61.29
2023-01-18T13:33:57.137Z,60.58
2023-01-18T13:36:23.826Z,59.94
2023-01-18T13:38:53.194Z,62.20
2023-01-18T13:41:24.536Z,62.44
2023-01-18T13:44:00.706Z,62.83
2023-01-18T13:46:28.251Z,61.36
2023-01-18T13:48:57.049Z,61.68
2023-01-18T13:51:50.074Z,62.77
2023-01-18T13:54:18.243Z,62.18
2023-01-18T13:57:10.358Z,61.54
2023-01-18T13:59:39.268Z,60.17
2023-01-18T14:02:16.455Z,61.41
2023-01-18T14:04:43.275Z,61.66
2023-01-18T14:07:19.847Z,61.79
2023-01-18T14:09:49.119Z,60.78
2023-01-18T14:12:46.805Z,61.75
2023-01-18T14:15:24.477Z,61.54
2023-01-18T14:17:58.491Z,61.32
2023-01-18T14:20:53.230Z,61.70
2023-01-18T14:23:49.543Z,62.02
2023-01-18T14:26:18.744Z,61.17
2023-01-18T14:28:49.999Z,61.54
2023-01-18T14:31:20.366Z,61.23
2023-01-18T14:33:47.040Z,61.02
2023-01-18T14:36:20.612Z,60.47
2023-01-18T14:38:47.053Z,61.05
2023-01-18T14:41:16.735Z,60.56
2023-01-18T14:43:44.963Z,61.25
2023-01-18T14:46:15.883Z,60.23
2023-01-18T14:48:47.448Z,62.16
2023-01-18T14:51:16.881Z,61.30
2023-01-18T14:53:48.094Z,60.63
2023-01-18T14:56:19.046Z,62.37
2023-01-18T14:58:52.238Z,62.10
2023-01-18T15:01:32.805Z,61.64
2023-01-18T15:04:01.152Z,61.99
2023-01-18T15:06:35.029Z,63.78
2023-01-18T15:09:02.487Z,63.43
2023-01-18T15:11:28.916Z,64.32
2023-01-18T15:13:57.115Z,64.54
2023-01-18T15:16:26.683Z,64.23
2023-01-18T15:18:55.617Z,62.94
2023-01-18T15:21:24.333Z,63.52
2023-01-18T15:23:52.711Z,64.35
2023-01-18T15:26:33.470Z,64.11
2023-01-18T15:29:05.829Z,63.85
2023-01-18T15:31:32.211Z,64.00
2023-01-18T15:34:00.164Z,64.30
2023-01-18T15:36:26.867Z,64.85
2023-01-18T15:38:53.269Z,65.37
2023-01-18T15:41:19.797Z,64.12
2023-01-18T15:43:46.227Z,66.64
2023-01-18T15:46:15.279Z,66.08
2023-01-18T15:48:48.484Z,66.00
2023-01-18T15:51:16.404Z,65.66
2023-01-18T15:53:45.785Z,65.16
2023-01-18T15:56:17.315Z,65.52
2023-01-18T15:58:45.763Z,65.69
2023-01-18T16:01:17.509Z,66.12
2023-01-18T16:03:55.125Z,66.06
2023-01-18T16:06:31.660Z,65.98
2023-01-18T16:09:00.479Z,65.88
2023-01-18T16:11:30.159Z,66.21
2023-01-18T16:13:57.693Z,67.21
2023-01-18T16:16:25.994Z,67.97
2023-01-18T16:19:02.762Z,66.70
2023-01-18T16:21:43.816Z,68.47
2023-01-18T16:24:16.609Z,68.45
2023-01-18T16:26:43.769Z,68.38
2023-01-18T16:29:13.282Z,66.79
2023-01-18T16:31:41.942Z,66.91
2023-01-18T16:34:20.231Z,68.05
2023-01-18T16:36:48.159Z,68.52
2023-01-18T16:39:14.701Z,67.95
2023-01-18T16:41:42.347Z,69.33
2023-01-18T16:44:13.298Z,68.72
2023-01-18T16:46:39.654Z,68.67
2023-01-18T16:49:10.999Z,68.82
2023-01-18T16:51:37.611Z,67.96
2023-01-18T16:54:05.352Z,66.49
2023-01-18T16:56:31.754Z,68.07
2023-01-18T16:58:58.110Z,67.71
2023-01-18T17:01:24.589Z,67.92
2023-01-18T17:03:51.778Z,69.23
2023-01-18T17:06:20.278Z,67.90
2023-01-18T17:08:46.980Z,69.00
2023-01-18T17:11:14.832Z,69.29
2023-01-18T17:13:41.996Z,68.87
2023-01-18T17:16:13.596Z,69.11
2023-01-18T17:18:39.992Z,69.83
2023-01-18T17:21:06.365Z,68.88
2023-01-18T17:23:32.744Z,68.06
2023-01-18T17:25:59.111Z,69.39
2023-01-18T17:28:27.437Z,69.17
2023-01-18T17:30:54.460Z,70.17
2023-01-18T17:33:23.468Z,71.08
2023-01-18T17:35:51.777Z,71.17
2023-01-18T17:38:24.282Z,71.83
2023-01-18T17:40:51.602Z,72.58
2023-01-18T17:43:28.436Z,71.75
2023-01-18T17:46:02.411Z,72.52
2023-01-18T17:48:29.178Z,73.16
2023-01-18T17:50:58.780Z,73.17
2023-01-18T17:53:25.522Z,73.61
2023-01-18T17:55:51.876Z,72.01
2023-01-18T17:58:18.228Z,71.68
2023-01-18T18:00:44.681Z,71.91
2023-01-18T18:03:15.373Z,72.64
2023-01-18T18:05:41.765Z,71.73
2023-01-18T18:08:08.333Z,72.84
2023-01-18T18:10:35.007Z,71.15
2023-01-18T18:13:01.846Z,71.68
2023-01-18T18:15:28.500Z,71.07
2023-01-18T18:17:54.928Z,70.82
2023-01-18T18:20:23.013Z,71.75
2023-01-18T18:22:49.557Z,72.31
2023-01-18T18:25:18.550Z,70.54
2023-01-18T18:27:46.044Z,70.78
2023-01-18T18:30:14.119Z,72.22
2023-01-18T18:32:40.514Z,72.39
2023-01-18T18:35:23.022Z,71.04
2023-01-18T18:37:52.895Z,72.40
2023-01-18T18:40:20.480Z,72.44
2023-01-18T18:43:00.812Z,73.53
2023-01-18T18:45:30.023Z,72.81
2023-01-18T18:47:56.402Z,71.91
2023-01-18T18:50:22.772Z,74.11
2023-01-18T18:52:49.218Z,74.37
2023-01-18T18:55:17.128Z,73.50
2023-01-18T18:57:43.532Z,73.82
2023-01-18T19:00:13.485Z,72.58
2023-01-18T19:02:41.218Z,72.46
2023-01-18T19:05:08.500Z,71.90
2023-01-18T19:07:35.041Z,72.36
2023-01-18T19:10:01.767Z,72.65
2023-01-18T19:12:29.480Z,73.14
2023-01-18T19:14:55.919Z,72.54
2023-01-18T19:17:30.350Z,73.29
2023-01-18T19:19:57.435Z,73.00
2023-01-18T19:22:23.775Z,72.09
2023-01-18T19:24:50.146Z,73.42
2023-01-18T19:27:16.685Z,73.49
2023-01-18T19:29:44.437Z,73.79
2023-01-18T19:32:13.470Z,73.24
2023-01-18T19:34:39.876Z,72.99
2023-01-18T19:37:06.486Z,71.18
2023-01-18T19:39:32.864Z,70.16
2023-01-18T19:41:59.261Z,71.83
2023-01-18T19:44:28.521Z,72.04
2023-01-18T19:46:56.273Z,72.38
2023-01-18T19:49:22.767Z,72.79
2023-01-18T19:51:49.121Z,72.69
2023-01-18T19:54:15.478Z,72.16
2023-01-18T19:56:41.834Z,71.55
2023-01-18T19:59:08.193Z,72.26
2023-01-18T20:01:37.119Z,72.47
2023-01-18T20:04:06.137Z,71.14
2023-01-18T20:06:33.237Z,71.87
2023-01-18T20:08:59.611Z,72.12
2023-01-18T20:11:26.087Z,72.26
2023-01-18T20:13:52.512Z,72.66
2023-01-18T20:16:19.235Z,72.34
2023-01-18T20:18:46.480Z,70.90
2023-01-18T20:21:15.702Z,71.63
2023-01-18T20:23:43.645Z,72.48
2023-01-18T20:26:10.789Z,72.27
2023-01-18T20:28:37.463Z,71.73
2023-01-18T20:31:05.289Z,71.91
2023-01-18T20:33:31.991Z,71.38
2023-01-18T20:35:58.432Z,71.89
2023-01-18T20:38:34.417Z,71.01
2023-01-18T20:41:01.427Z,69.64
2023-01-18T20:43:27.969Z,71.98
2023-01-18T20:46:04.104Z,70.63
2023-01-18T20:48:31.444Z,70.20
2023-01-18T20:50:57.922Z,72.08
2023-01-18T20:53:25.999Z,71.39
2023-01-18T20:55:52.656Z,72.00
2023-01-18T20:58:19.121Z,71.03
2023-01-18T21:00:45.565Z,71.27
2023-01-18T21:03:13.461Z,70.56
2023-01-18T21:05:42.082Z,71.11
2023-01-18T21:08:08.478Z,71.49
2023-01-18T21:10:38.042Z,71.54
2023-01-18T21:13:04.606Z,70.36
2023-01-18T21:15:31.078Z,70.41
2023-01-18T21:17:58.225Z,71.38
2023-01-18T21:20:24.844Z,70.37
2023-01-18T21:22:51.224Z,70.54
2023-01-18T21:25:17.624Z,70.67
2023-01-18T21:27:45.306Z,70.59
2023-01-18T21:30:13.285Z,70.19
2023-01-18T21:32:39.689Z,71.70
2023-01-18T21:35:06.861Z,71.66
2023-01-18T21:37:33.284Z,71.28
2023-01-18T21:39:59.729Z,71.32
2023-01-18T21:42:28.552Z,71.07
2023-01-18T21:44:59.070Z,70.50
2023-01-18T21:47:25.465Z,70.66
2023-01-18T21:50:16.689Z,69.89
2023-01-18T21:52:38.502Z,69.68
2023-01-18T21:55:05.495Z,70.89
2023-01-18T21:57:31.895Z,70.83
2023-01-18T21:59:59.615Z,70.07
2023-01-18T22:02:26.104Z,70.25
2023-01-18T22:04:52.578Z,71.45
2023-01-18T22:07:18.973Z,70.86
2023-01-18T22:09:55.291Z,71.21
2023-01-18T22:12:29.215Z,70.65
2023-01-18T22:14:55.610Z,71.16
2023-01-18T22:17:23.413Z,69.93
2023-01-18T22:19:49.875Z,69.31
2023-01-18T22:22:16.218Z,70.38
2023-01-18T22:24:42.573Z,71.39
2023-01-18T22:27:08.941Z,70.13
2023-01-18T22:29:35.301Z,70.58
2023-01-18T22:32:01.708Z,70.80
2023-01-18T22:34:31.517Z,70.36
2023-01-18T22:36:57.874Z,71.58
2023-01-18T22:39:24.367Z,69.22
2023-01-18T22:41:50.757Z,70.27
2023-01-18T22:44:17.139Z,70.00
2023-01-18T22:46:43.780Z,69.72
2023-01-18T22:49:10.155Z,68.41
2023-01-18T22:51:37.868Z,70.59
2023-01-18T22:54:04.327Z,70.84
2023-01-18T22:56:30.771Z,70.81
2023-01-18T22:58:57.187Z,69.23
2023-01-18T23:01:25.523Z,69.56
2023-01-18T23:03:52.745Z,70.02
2023-01-18T23:06:19.899Z,68.69
2023-01-18T23:08:47.912Z,69.53
2023-01-18T23:11:17.480Z,68.93
2023-01-18T23:13:46.666Z,69.77
2023-01-18T23:16:14.224Z,69.81
2023-01-18T23:18:40.741Z,70.25
2023-01-18T23:21:07.116Z,69.61
2023-01-18T23:23:33.501Z,70.70
2023-01-18T23:26:01.211Z,71.65
2023-01-18T23:28:27.627Z,71.68
2023-01-18T23:30:54.416Z,71.55
2023-01-18T23:33:21.009Z,71.21
2023-01-18T23:35:47.358Z,71.17
2023-01-18T23:38:13.748Z,70.19
2023-01-18T23:40:40.131Z,71.51
2023-01-18T23:43:07.795Z,70.48
2023-01-18T23:45:34.136Z,70.13
2023-01-18T23:48:06.118Z,69.96
2023-01-18T23:50:32.463Z,70.15
2023-01-18T23:52:59.400Z,70.43
2023-01-18T23:55:25.776Z,71.93
2023-01-18T23:57:52.152Z,72.69
